createdAt,value
2023-05-02T00:02:53.231Z,3.10
2023-05-02T00:07:55.183Z,3.10
2023-05-02T00:12:56.646Z,3.10
2023-05-02T00:17:58.123Z,3.42
2023-05-02T00:22:59.597Z,3.30
2023-05-02T00:28:01.011Z,3.97
2023-05-02T00:33:02.480Z,3.33
2023-05-02T00:38:03.857Z,3.45
2023-05-02T00:43:05.127Z,4.32
2023-05-02T00:48:08.806Z,4.15
2023-05-02T00:53:10.813Z,4.93
2023-05-02T00:58:16.428Z,5.20
2023-05-02T01:03:31.166Z,5.53
2023-05-02T01:08:40.173Z,5.10
2023-05-02T01:13:43.277Z,5.88
2023-05-02T01:18:47.118Z,6.30
2023-05-02T01:24:06.762Z,6.25
2023-05-02T01:29:10.186Z,6.38
2023-05-02T01:34:12.871Z,5.73
2023-05-02T01:39:27.215Z,7.20
2023-05-02T01:49:34.123Z,7.47
2023-05-02T01:54:36.551Z,6.45
2023-05-02T01:59:40.902Z,7.95
2023-05-02T02:04:43.092Z,7.15
2023-05-02T02:09:44.557Z,9.75
2023-05-02T02:14:50.907Z,8.95
2023-05-02T02:19:56.091Z,10.23
2023-05-02T02:24:59.200Z,11.55
2023-05-02T02:30:00.909Z,10.20
2023-05-02T02:35:04.408Z,12.20
2023-05-02T02:40:19.011Z,12.75
2023-05-02T02:45:23.256Z,11.93
2023-05-02T02:55:54.053Z,12.80
2023-05-02T03:00:56.163Z,13.00
2023-05-02T03:05:58.027Z,13.00
2023-05-02T03:10:59.347Z,12.82
2023-05-02T03:16:32.056Z,13.52
2023-05-02T03:21:34.416Z,12.88
2023-05-02T03:26:35.973Z,12.82
2023-05-02T03:31:37.430Z,11.52
2023-05-02T03:36:38.774Z,11.73
2023-05-02T03:41:40.136Z,13.40
2023-05-02T03:46:41.744Z,13.57
2023-05-02T03:51:43.599Z,13.68
2023-05-02T03:56:44.901Z,15.02
2023-05-02T04:01:50.407Z,13.75
2023-05-02T04:06:51.940Z,13.65
2023-05-02T04:11:53.850Z,13.55
2023-05-02T04:16:55.309Z,12.73
2023-05-02T04:21:56.632Z,13.45
2023-05-02T04:26:58.007Z,14.32
2023-05-02T04:31:59.360Z,13.75
2023-05-02T04:37:01.706Z,13.93
2023-05-02T04:42:03.944Z,13.75
2023-05-02T04:47:05.403Z,13.20
2023-05-02T04:52:06.785Z,12.95
2023-05-02T04:57:10.014Z,14.30
2023-05-02T05:02:12.829Z,14.82
2023-05-02T05:07:14.302Z,17.65
2023-05-02T05:12:15.651Z,20.00
2023-05-02T05:17:17.192Z,21.15
2023-05-02T05:22:20.303Z,20.95
2023-05-02T05:27:22.018Z,23.30
2023-05-02T05:32:24.249Z,22.00
2023-05-02T05:37:25.698Z,21.95
2023-05-02T05:42:27.174Z,23.52
2023-05-02T05:47:28.967Z,22.95
2023-05-02T05:52:30.630Z,22.48
2023-05-02T05:57:31.993Z,23.08
2023-05-02T06:02:33.449Z,22.80
2023-05-02T06:07:34.884Z,22.33
2023-05-02T06:12:36.445Z,21.70
2023-05-02T06:17:37.737Z,21.77
2023-05-02T06:22:40.446Z,20.23
2023-05-02T06:27:42.559Z,20.42
2023-05-02T06:32:44.162Z,20.15
2023-05-02T06:37:45.620Z,19.05
2023-05-02T06:42:47.199Z,20.55
2023-05-02T06:47:48.598Z,19.02
2023-05-02T06:52:49.950Z,20.00
2023-05-02T06:57:52.230Z,20.70
2023-05-02T07:02:54.747Z,22.38
2023-05-02T07:07:56.054Z,20.35
2023-05-02T07:12:57.533Z,17.77
2023-05-02T07:17:59.246Z,18.27
2023-05-02T07:23:00.685Z,17.10
2023-05-02T07:28:02.138Z,16.42
2023-05-02T07:33:03.738Z,17.30
2023-05-02T07:38:05.132Z,17.25
2023-05-02T07:43:07.483Z,15.93
2023-05-02T07:48:09.672Z,15.83
2023-05-02T07:53:11.719Z,15.25
2023-05-02T07:58:13.094Z,16.80
2023-05-02T08:03:14.644Z,16.98
2023-05-02T08:08:16.431Z,17.40
2023-05-02T08:13:18.069Z,17.02
2023-05-02T08:18:19.384Z,13.50
2023-05-02T08:23:21.054Z,14.82
2023-05-02T08:28:23.320Z,13.73
2023-05-02T08:33:24.670Z,14.73
2023-05-02T08:38:26.588Z,12.45
2023-05-02T08:43:29.461Z,13.05
2023-05-02T08:48:32.445Z,14.57
2023-05-02T08:53:37.344Z,15.57
2023-05-02T08:58:40.219Z,14.63
2023-05-02T09:03:44.564Z,15.35
2023-05-02T09:08:50.721Z,13.75
2023-05-02T09:13:52.568Z,12.38
2023-05-02T09:18:58.901Z,12.90
2023-05-02T09:24:00.429Z,13.32
2023-05-02T09:29:04.094Z,13.52
2023-05-02T09:34:13.925Z,13.77
2023-05-02T09:39:17.472Z,12.93
2023-05-02T09:44:21.785Z,11.10
2023-05-02T09:49:40.833Z,9.07
2023-05-02T09:54:42.406Z,8.73
2023-05-02T09:59:57.114Z,10.65
2023-05-02T10:05:01.726Z,8.65
2023-05-02T10:10:03.624Z,9.30
2023-05-02T10:15:07.979Z,8.88
2023-05-02T10:20:16.278Z,7.90
2023-05-02T10:25:18.355Z,6.78
2023-05-02T10:30:20.222Z,8.05
2023-05-02T10:35:24.256Z,7.57
2023-05-02T10:40:26.227Z,8.52
2023-05-02T10:45:35.304Z,7.43
2023-05-02T10:50:47.893Z,6.70
2023-05-02T10:56:11.541Z,6.10
2023-05-02T11:01:26.302Z,6.60
2023-05-02T11:06:34.063Z,5.53
2023-05-02T11:11:43.603Z,4.22
2023-05-02T11:17:11.552Z,4.32
2023-05-02T11:22:23.912Z,2.97
2023-05-02T11:27:31.201Z,1.95
2023-05-02T11:32:45.321Z,1.52
2023-05-02T11:37:59.979Z,2.28
2023-05-02T11:43:11.838Z,2.10
2023-05-02T11:48:16.398Z,1.70
2023-05-02T11:53:29.317Z,1.27
2023-05-02T11:58:33.278Z,1.45
2023-05-02T12:03:35.171Z,1.83
2023-05-02T12:08:37.303Z,2.20
2023-05-02T12:13:48.874Z,1.80
2023-05-02T12:18:50.673Z,1.90
2023-05-02T12:23:52.833Z,2.25
2023-05-02T12:28:55.171Z,1.90
2023-05-02T12:33:57.999Z,2.60
2023-05-02T12:39:00.438Z,2.58
2023-05-02T12:44:02.114Z,3.00
2023-05-02T12:49:12.367Z,2.35
2023-05-02T12:54:20.826Z,2.50
2023-05-02T12:59:29.991Z,2.47
2023-05-02T13:04:39.583Z,2.40
2023-05-02T13:09:41.209Z,2.75
2023-05-02T13:14:42.633Z,2.80
2023-05-02T13:19:50.400Z,2.75
2023-05-02T13:24:55.817Z,2.90
2023-05-02T13:29:57.384Z,3.15
2023-05-02T13:34:59.107Z,3.15
2023-05-02T13:40:00.873Z,2.83
2023-05-02T13:45:06.405Z,3.38
2023-05-02T13:50:08.494Z,2.83
2023-05-02T13:55:10.121Z,3.60
2023-05-02T14:00:12.020Z,2.55
2023-05-02T14:05:13.516Z,2.97
2023-05-02T14:10:14.948Z,2.95
2023-05-02T14:15:16.667Z,3.10
2023-05-02T14:20:18.060Z,3.08
2023-05-02T14:25:20.468Z,3.78
2023-05-02T14:30:21.767Z,7.32
2023-05-02T14:35:23.562Z,3.47
2023-05-02T14:40:24.841Z,3.40
2023-05-02T14:45:26.616Z,3.65
2023-05-02T14:50:27.994Z,3.78
2023-05-02T14:55:29.301Z,3.10
2023-05-02T15:00:30.653Z,3.58
2023-05-02T15:05:32.460Z,3.80
2023-05-02T15:10:39.982Z,3.78
2023-05-02T15:15:41.379Z,3.65
2023-05-02T15:20:44.429Z,4.20
2023-05-02T15:25:46.285Z,5.97
2023-05-02T15:30:49.285Z,5.43
2023-05-02T15:35:55.753Z,5.53
2023-05-02T15:40:59.282Z,4.85
2023-05-02T15:46:00.820Z,3.78
2023-05-02T15:51:03.014Z,4.28
2023-05-02T15:56:07.965Z,3.60
2023-05-02T16:01:09.718Z,3.40
2023-05-02T16:06:11.226Z,3.40
2023-05-02T16:11:12.601Z,3.15
2023-05-02T16:16:13.944Z,2.70
2023-05-02T16:21:15.548Z,3.20
2023-05-02T16:26:16.999Z,3.40
2023-05-02T16:31:18.356Z,3.38
2023-05-02T16:36:19.740Z,3.20
2023-05-02T16:41:21.393Z,3.53
2023-05-02T16:46:22.841Z,3.45
2023-05-02T16:51:24.165Z,4.38
2023-05-02T16:56:25.496Z,5.07
2023-05-02T17:01:27.204Z,4.20
2023-05-02T17:06:28.579Z,4.22
2023-05-02T17:11:29.995Z,3.58
2023-05-02T17:16:31.385Z,3.00
2023-05-02T17:21:33.724Z,3.60
2023-05-02T17:26:35.455Z,2.95
2023-05-02T17:31:37.829Z,3.38
2023-05-02T17:36:42.165Z,2.67
2023-05-02T17:41:43.569Z,2.78
2023-05-02T17:46:44.940Z,2.88
2023-05-02T17:51:46.575Z,2.83
2023-05-02T17:56:47.973Z,2.88
2023-05-02T18:01:52.796Z,2.53
2023-05-02T18:06:54.594Z,2.42
2023-05-02T18:11:58.301Z,2.92
2023-05-02T18:16:59.632Z,2.38
2023-05-02T18:22:01.106Z,2.35
2023-05-02T18:27:03.166Z,2.50
2023-05-02T18:32:04.603Z,2.80
2023-05-02T18:37:06.840Z,2.70
2023-05-02T18:42:08.300Z,2.60
2023-05-02T18:47:09.766Z,2.60
2023-05-02T18:52:11.877Z,3.00
2023-05-02T18:57:13.272Z,3.20
2023-05-02T19:02:15.627Z,3.25
2023-05-02T19:07:16.929Z,3.08
2023-05-02T19:12:18.344Z,2.70
2023-05-02T19:17:19.878Z,3.00
2023-05-02T19:22:22.194Z,3.67
2023-05-02T19:27:23.695Z,3.50
2023-05-02T19:32:25.303Z,4.47
2023-05-02T19:37:29.597Z,3.25
2023-05-02T19:47:32.649Z,3.47
2023-05-02T19:52:34.378Z,3.50
2023-05-02T19:57:36.244Z,2.75
2023-05-02T20:02:37.698Z,2.95
2023-05-02T20:07:39.741Z,3.15
2023-05-02T20:12:44.847Z,3.10
2023-05-02T20:17:47.485Z,3.28
2023-05-02T20:22:48.860Z,2.60
2023-05-02T20:27:50.901Z,2.75
2023-05-02T20:32:52.594Z,3.08
2023-05-02T20:37:54.104Z,3.47
2023-05-02T20:42:55.483Z,3.65
2023-05-02T20:47:56.891Z,3.22
2023-05-02T20:52:58.225Z,3.35
2023-05-02T20:57:59.511Z,3.17
2023-05-02T21:03:00.998Z,2.92
2023-05-02T21:08:02.424Z,3.17
2023-05-02T21:13:03.754Z,3.15
2023-05-02T21:18:05.863Z,3.53
2023-05-02T21:23:11.023Z,3.20
2023-05-02T21:28:12.619Z,3.63
2023-05-02T21:33:17.363Z,3.35
2023-05-02T21:38:18.672Z,3.42
2023-05-02T21:43:20.023Z,3.50
2023-05-02T21:48:21.596Z,4.10
2023-05-02T21:53:23.765Z,3.38
2023-05-02T21:58:25.251Z,3.85
2023-05-02T22:03:27.622Z,4.07
2023-05-02T22:08:29.009Z,3.90
2023-05-02T22:13:30.358Z,3.75
2023-05-02T22:18:31.684Z,3.55
2023-05-02T22:23:32.986Z,4.15
2023-05-02T22:28:35.170Z,3.88
2023-05-02T22:33:37.156Z,3.95
2023-05-02T22:38:41.472Z,3.72
2023-05-02T22:43:42.796Z,4.00
2023-05-02T22:48:44.138Z,3.78
2023-05-02T22:53:45.663Z,3.65
2023-05-02T22:58:49.703Z,3.80
2023-05-02T23:03:51.783Z,4.25
2023-05-02T23:08:53.230Z,3.88
2023-05-02T23:13:54.537Z,4.35
2023-05-02T23:18:55.960Z,4.30
2023-05-02T23:23:57.306Z,4.82
2023-05-02T23:28:58.662Z,4.25
2023-05-02T23:34:00.542Z,4.25
2023-05-02T23:39:02.483Z,4.57
2023-05-02T23:44:04.666Z,4.80
2023-05-02T23:49:05.995Z,5.43
2023-05-02T23:54:07.282Z,4.57
2023-05-02T23:59:08.728Z,5.45
